sensor_id;sensor_type;location;lat;lon;timestamp;temperature;humidity
9640;DHT22;51745;50.872;4.732;2022-07-12T00:01:51;16.40;99.90
9640;DHT22;51745;50.872;4.732;2022-07-12T00:04:40;16.30;99.90
9640;DHT22;51745;50.872;4.732;2022-07-12T00:07:28;16.20;99.90
9640;DHT22;51745;50.872;4.732;2022-07-12T00:10:15;16.10;99.90
9640;DHT22;51745;50.872;4.732;2022-07-12T00:13:03;16.20;99.90
9640;DHT22;51745;50.872;4.732;2022-07-12T00:15:51;16.20;99.90
9640;DHT22;51745;50.872;4.732;2022-07-12T00:18:39;16.20;99.90
9640;DHT22;51745;50.872;4.732;2022-07-12T00:21:29;16.20;99.90
9640;DHT22;51745;50.872;4.732;2022-07-12T00:24:16;16.20;99.90
9640;DHT22;51745;50.872;4.732;2022-07-12T00:27:05;16.20;99.90
9640;DHT22;51745;50.872;4.732;2022-07-12T00:29:52;16.10;99.90
9640;DHT22;51745;50.872;4.732;2022-07-12T00:32:40;16.30;99.90
9640;DHT22;51745;50.872;4.732;2022-07-12T00:35:27;16.10;99.90
9640;DHT22;51745;50.872;4.732;2022-07-12T00:38:17;16.00;99.90
9640;DHT22;51745;50.872;4.732;2022-07-12T00:41:04;16.00;99.90
9640;DHT22;51745;50.872;4.732;2022-07-12T00:43:52;16.00;99.90
9640;DHT22;51745;50.872;4.732;2022-07-12T00:46:39;15.90;99.90
9640;DHT22;51745;50.872;4.732;2022-07-12T00:49:27;15.80;99.90
9640;DHT22;51745;50.872;4.732;2022-07-12T00:52:15;15.80;99.90
9640;DHT22;51745;50.872;4.732;2022-07-12T00:55:04;15.60;99.90
9640;DHT22;51745;50.872;4.732;2022-07-12T00:57:52;15.70;99.90
9640;DHT22;51745;50.872;4.732;2022-07-12T01:00:39;15.60;99.90
9640;DHT22;51745;50.872;4.732;2022-07-12T01:03:27;15.50;99.90
9640;DHT22;51745;50.872;4.732;2022-07-12T01:06:15;15.50;99.90
9640;DHT22;51745;50.872;4.732;2022-07-12T01:09:08;15.40;99.90
9640;DHT22;51745;50.872;4.732;2022-07-12T01:12:00;15.40;99.90
9640;DHT22;51745;50.872;4.732;2022-07-12T01:14:48;15.30;99.90
9640;DHT22;51745;50.872;4.732;2022-07-12T01:17:36;15.30;99.90
9640;DHT22;51745;50.872;4.732;2022-07-12T01:20:26;15.20;99.90
9640;DHT22;51745;50.872;4.732;2022-07-12T01:23:15;15.20;99.90
9640;DHT22;51745;50.872;4.732;2022-07-12T01:26:03;15.10;99.90
9640;DHT22;51745;50.872;4.732;2022-07-12T01:28:51;15.10;99.90
9640;DHT22;51745;50.872;4.732;2022-07-12T01:31:39;15.00;99.90
9640;DHT22;51745;50.872;4.732;2022-07-12T01:34:27;15.00;99.90
9640;DHT22;51745;50.872;4.732;2022-07-12T01:37:15;14.90;99.90
9640;DHT22;51745;50.872;4.732;2022-07-12T01:40:06;14.90;99.90
9640;DHT22;51745;50.872;4.732;2022-07-12T01:42:54;14.80;99.90
9640;DHT22;51745;50.872;4.732;2022-07-12T01:45:42;14.70;99.90
9640;DHT22;51745;50.872;4.732;2022-07-12T01:48:30;14.70;99.90
9640;DHT22;51745;50.872;4.732;2022-07-12T01:51:20;14.60;99.90
9640;DHT22;51745;50.872;4.732;2022-07-12T01:54:08;14.50;99.90
9640;DHT22;51745;50.872;4.732;2022-07-12T01:56:57;14.50;99.90
9640;DHT22;51745;50.872;4.732;2022-07-12T01:59:44;14.40;99.90
9640;DHT22;51745;50.872;4.732;2022-07-12T02:02:32;14.20;99.90
9640;DHT22;51745;50.872;4.732;2022-07-12T02:05:20;14.20;99.90
9640;DHT22;51745;50.872;4.732;2022-07-12T02:08:09;14.20;99.90
9640;DHT22;51745;50.872;4.732;2022-07-12T02:10:57;14.10;99.90
9640;DHT22;51745;50.872;4.732;2022-07-12T02:13:47;14.10;99.90
9640;DHT22;51745;50.872;4.732;2022-07-12T02:16:35;14.00;99.90
9640;DHT22;51745;50.872;4.732;2022-07-12T02:19:23;14.00;99.90
9640;DHT22;51745;50.872;4.732;2022-07-12T02:22:12;14.00;99.90
9640;DHT22;51745;50.872;4.732;2022-07-12T02:25:00;14.00;99.90
9640;DHT22;51745;50.872;4.732;2022-07-12T02:27:49;14.00;99.90
9640;DHT22;51745;50.872;4.732;2022-07-12T02:30:38;13.90;99.90
9640;DHT22;51745;50.872;4.732;2022-07-12T02:33:26;14.00;99.90
9640;DHT22;51745;50.872;4.732;2022-07-12T02:36:13;13.90;99.90
9640;DHT22;51745;50.872;4.732;2022-07-12T02:39:01;13.90;99.90
9640;DHT22;51745;50.872;4.732;2022-07-12T02:41:50;13.90;99.90
9640;DHT22;51745;50.872;4.732;2022-07-12T02:44:37;13.80;99.90
9640;DHT22;51745;50.872;4.732;2022-07-12T02:47:26;13.80;99.90
9640;DHT22;51745;50.872;4.732;2022-07-12T02:50:15;13.80;99.90
9640;DHT22;51745;50.872;4.732;2022-07-12T02:53:03;13.80;99.90
9640;DHT22;51745;50.872;4.732;2022-07-12T02:55:51;13.70;99.90
9640;DHT22;51745;50.872;4.732;2022-07-12T02:58:39;13.60;99.90
9640;DHT22;51745;50.872;4.732;2022-07-12T03:01:27;13.50;99.90
9640;DHT22;51745;50.872;4.732;2022-07-12T03:04:16;13.60;99.90
9640;DHT22;51745;50.872;4.732;2022-07-12T03:07:04;13.50;99.90
9640;DHT22;51745;50.872;4.732;2022-07-12T03:09:51;13.60;99.90
9640;DHT22;51745;50.872;4.732;2022-07-12T03:12:39;13.60;99.90
9640;DHT22;51745;50.872;4.732;2022-07-12T03:15:27;13.50;99.90
9640;DHT22;51745;50.872;4.732;2022-07-12T03:18:15;13.50;99.90
9640;DHT22;51745;50.872;4.732;2022-07-12T03:21:05;13.50;99.90
9640;DHT22;51745;50.872;4.732;2022-07-12T03:23:53;13.40;99.90
9640;DHT22;51745;50.872;4.732;2022-07-12T03:26:40;13.40;99.90
9640;DHT22;51745;50.872;4.732;2022-07-12T03:29:28;13.40;99.90
9640;DHT22;51745;50.872;4.732;2022-07-12T03:32:16;13.50;99.90
9640;DHT22;51745;50.872;4.732;2022-07-12T03:35:06;13.40;99.90
9640;DHT22;51745;50.872;4.732;2022-07-12T03:37:55;13.40;99.90
9640;DHT22;51745;50.872;4.732;2022-07-12T03:40:43;13.30;99.90
9640;DHT22;51745;50.872;4.732;2022-07-12T03:43:30;13.30;99.90
9640;DHT22;51745;50.872;4.732;2022-07-12T03:46:18;13.40;99.90
9640;DHT22;51745;50.872;4.732;2022-07-12T03:49:06;13.30;99.90
9640;DHT22;51745;50.872;4.732;2022-07-12T03:51:54;13.30;99.90
9640;DHT22;51745;50.872;4.732;2022-07-12T03:54:43;13.30;99.90
9640;DHT22;51745;50.872;4.732;2022-07-12T03:57:31;13.30;99.90
9640;DHT22;51745;50.872;4.732;2022-07-12T04:00:18;13.30;99.90
9640;DHT22;51745;50.872;4.732;2022-07-12T04:03:06;12.50;99.90
9640;DHT22;51745;50.872;4.732;2022-07-12T04:05:54;13.40;99.90
9640;DHT22;51745;50.872;4.732;2022-07-12T04:08:49;13.40;99.90
9640;DHT22;51745;50.872;4.732;2022-07-12T04:11:38;13.40;99.90
9640;DHT22;51745;50.872;4.732;2022-07-12T04:14:25;13.40;99.90
9640;DHT22;51745;50.872;4.732;2022-07-12T04:17:14;13.50;99.90
9640;DHT22;51745;50.872;4.732;2022-07-12T04:20:03;14.90;99.90
9640;DHT22;51745;50.872;4.732;2022-07-12T04:22:52;13.90;99.90
9640;DHT22;51745;50.872;4.732;2022-07-12T04:25:41;13.60;99.90
9640;DHT22;51745;50.872;4.732;2022-07-12T04:28:30;13.70;99.90
9640;DHT22;51745;50.872;4.732;2022-07-12T04:31:17;13.70;99.90
9640;DHT22;51745;50.872;4.732;2022-07-12T04:34:05;13.80;99.90
9640;DHT22;51745;50.872;4.732;2022-07-12T04:36:52;13.80;99.90
9640;DHT22;51745;50.872;4.732;2022-07-12T04:39:41;13.90;99.90
9640;DHT22;51745;50.872;4.732;2022-07-12T04:42:32;14.00;99.90
9640;DHT22;51745;50.872;4.732;2022-07-12T04:45:21;14.10;99.90
9640;DHT22;51745;50.872;4.732;2022-07-12T04:48:09;12.80;99.90
9640;DHT22;51745;50.872;4.732;2022-07-12T04:50:57;14.80;99.90
9640;DHT22;51745;50.872;4.732;2022-07-12T04:53:46;14.60;99.90
9640;DHT22;51745;50.872;4.732;2022-07-12T04:56:34;14.90;99.90
9640;DHT22;51745;50.872;4.732;2022-07-12T04:59:22;15.80;99.90
9640;DHT22;51745;50.872;4.732;2022-07-12T05:02:15;15.10;99.90
9640;DHT22;51745;50.872;4.732;2022-07-12T05:05:03;15.00;99.90
9640;DHT22;51745;50.872;4.732;2022-07-12T05:07:50;15.10;99.90
9640;DHT22;51745;50.872;4.732;2022-07-12T05:10:38;15.20;99.90
9640;DHT22;51745;50.872;4.732;2022-07-12T05:13:25;15.40;99.90
9640;DHT22;51745;50.872;4.732;2022-07-12T05:16:13;15.60;99.90
9640;DHT22;51745;50.872;4.732;2022-07-12T05:19:03;15.70;99.90
9640;DHT22;51745;50.872;4.732;2022-07-12T05:21:50;15.90;99.90
9640;DHT22;51745;50.872;4.732;2022-07-12T05:24:38;16.00;99.90
9640;DHT22;51745;50.872;4.732;2022-07-12T05:27:26;16.20;99.90
9640;DHT22;51745;50.872;4.732;2022-07-12T05:30:13;16.30;99.90
9640;DHT22;51745;50.872;4.732;2022-07-12T05:33:01;17.70;99.90
9640;DHT22;51745;50.872;4.732;2022-07-12T05:35:50;16.20;99.90
9640;DHT22;51745;50.872;4.732;2022-07-12T05:38:38;16.30;99.90
9640;DHT22;51745;50.872;4.732;2022-07-12T05:41:26;16.30;99.90
9640;DHT22;51745;50.872;4.732;2022-07-12T05:44:14;17.50;99.90
9640;DHT22;51745;50.872;4.732;2022-07-12T05:47:03;16.40;99.90
9640;DHT22;51745;50.872;4.732;2022-07-12T05:49:51;16.40;99.90
9640;DHT22;51745;50.872;4.732;2022-07-12T05:52:41;16.50;99.90
9640;DHT22;51745;50.872;4.732;2022-07-12T05:55:47;16.70;99.90
9640;DHT22;51745;50.872;4.732;2022-07-12T05:58:35;17.00;99.90
9640;DHT22;51745;50.872;4.732;2022-07-12T06:01:27;17.00;99.90
9640;DHT22;51745;50.872;4.732;2022-07-12T06:04:14;17.10;99.90
9640;DHT22;51745;50.872;4.732;2022-07-12T06:07:02;17.10;99.90
9640;DHT22;51745;50.872;4.732;2022-07-12T06:09:51;17.00;99.90
9640;DHT22;51745;50.872;4.732;2022-07-12T06:12:38;17.10;99.90
9640;DHT22;51745;50.872;4.732;2022-07-12T06:15:25;17.00;99.90
9640;DHT22;51745;50.872;4.732;2022-07-12T06:18:18;17.00;99.90
9640;DHT22;51745;50.872;4.732;2022-07-12T06:21:06;17.20;99.90
9640;DHT22;51745;50.872;4.732;2022-07-12T06:23:53;17.30;99.90
9640;DHT22;51745;50.872;4.732;2022-07-12T06:26:42;17.40;99.90
9640;DHT22;51745;50.872;4.732;2022-07-12T06:29:30;17.60;99.90
9640;DHT22;51745;50.872;4.732;2022-07-12T06:32:18;17.60;99.90
9640;DHT22;51745;50.872;4.732;2022-07-12T06:35:06;17.80;99.90
9640;DHT22;51745;50.872;4.732;2022-07-12T06:37:54;17.80;99.90
9640;DHT22;51745;50.872;4.732;2022-07-12T06:40:42;18.20;99.90
9640;DHT22;51745;50.872;4.732;2022-07-12T06:43:31;18.10;99.90
9640;DHT22;51745;50.872;4.732;2022-07-12T06:46:19;18.30;99.90
9640;DHT22;51745;50.872;4.732;2022-07-12T06:49:07;18.20;99.90
9640;DHT22;51745;50.872;4.732;2022-07-12T06:51:54;18.20;99.90
9640;DHT22;51745;50.872;4.732;2022-07-12T06:54:42;18.30;99.90
9640;DHT22;51745;50.872;4.732;2022-07-12T06:57:32;18.50;99.90
9640;DHT22;51745;50.872;4.732;2022-07-12T07:00:22;18.50;99.90
9640;DHT22;51745;50.872;4.732;2022-07-12T07:03:10;18.70;99.90
9640;DHT22;51745;50.872;4.732;2022-07-12T07:05:58;18.90;99.90
9640;DHT22;51745;50.872;4.732;2022-07-12T07:08:50;17.60;99.90
9640;DHT22;51745;50.872;4.732;2022-07-12T07:11:38;19.10;99.90
9640;DHT22;51745;50.872;4.732;2022-07-12T07:14:32;19.10;99.90
9640;DHT22;51745;50.872;4.732;2022-07-12T07:17:22;19.20;99.90
9640;DHT22;51745;50.872;4.732;2022-07-12T07:20:10;19.20;99.90
9640;DHT22;51745;50.872;4.732;2022-07-12T07:22:57;19.30;99.90
9640;DHT22;51745;50.872;4.732;2022-07-12T07:25:45;19.40;99.90
9640;DHT22;51745;50.872;4.732;2022-07-12T07:28:34;19.50;99.90
9640;DHT22;51745;50.872;4.732;2022-07-12T07:31:42;19.60;99.90
9640;DHT22;51745;50.872;4.732;2022-07-12T07:34:30;19.70;99.90
9640;DHT22;51745;50.872;4.732;2022-07-12T07:37:18;19.30;99.90
9640;DHT22;51745;50.872;4.732;2022-07-12T07:40:10;19.90;99.90
9640;DHT22;51745;50.872;4.732;2022-07-12T07:42:59;20.70;99.90
9640;DHT22;51745;50.872;4.732;2022-07-12T07:46:05;20.20;99.90
9640;DHT22;51745;50.872;4.732;2022-07-12T07:49:00;20.20;99.90
9640;DHT22;51745;50.872;4.732;2022-07-12T07:52:00;20.30;99.90
9640;DHT22;51745;50.872;4.732;2022-07-12T07:54:55;20.50;99.90
9640;DHT22;51745;50.872;4.732;2022-07-12T07:57:50;21.60;99.90
9640;DHT22;51745;50.872;4.732;2022-07-12T08:00:39;20.90;99.90
9640;DHT22;51745;50.872;4.732;2022-07-12T08:03:32;21.00;99.90
9640;DHT22;51745;50.872;4.732;2022-07-12T08:06:24;21.20;99.90
9640;DHT22;51745;50.872;4.732;2022-07-12T08:09:13;21.30;99.90
9640;DHT22;51745;50.872;4.732;2022-07-12T08:12:02;21.20;99.90
9640;DHT22;51745;50.872;4.732;2022-07-12T08:14:53;21.30;99.90
9640;DHT22;51745;50.872;4.732;2022-07-12T08:17:44;21.30;99.90
9640;DHT22;51745;50.872;4.732;2022-07-12T08:20:42;21.30;99.90
9640;DHT22;51745;50.872;4.732;2022-07-12T08:23:43;21.60;99.90
9640;DHT22;51745;50.872;4.732;2022-07-12T08:26:33;21.30;99.90
9640;DHT22;51745;50.872;4.732;2022-07-12T08:29:22;21.40;99.90
9640;DHT22;51745;50.872;4.732;2022-07-12T08:32:14;21.60;99.90
9640;DHT22;51745;50.872;4.732;2022-07-12T08:35:02;22.00;99.90
9640;DHT22;51745;50.872;4.732;2022-07-12T08:37:53;21.50;99.90
9640;DHT22;51745;50.872;4.732;2022-07-12T08:40:42;22.30;99.90
9640;DHT22;51745;50.872;4.732;2022-07-12T08:43:34;22.30;99.90
9640;DHT22;51745;50.872;4.732;2022-07-12T08:46:23;22.30;99.90
9640;DHT22;51745;50.872;4.732;2022-07-12T08:49:19;22.20;99.90
9640;DHT22;51745;50.872;4.732;2022-07-12T08:55:20;22.50;99.90
9640;DHT22;51745;50.872;4.732;2022-07-12T08:58:14;21.40;99.90
9640;DHT22;51745;50.872;4.732;2022-07-12T09:01:05;22.70;99.90
9640;DHT22;51745;50.872;4.732;2022-07-12T09:04:08;21.20;99.90
9640;DHT22;51745;50.872;4.732;2022-07-12T09:06:57;22.60;99.90
9640;DHT22;51745;50.872;4.732;2022-07-12T09:10:03;22.60;99.90
9640;DHT22;51745;50.872;4.732;2022-07-12T09:12:53;22.20;99.90
9640;DHT22;51745;50.872;4.732;2022-07-12T09:15:40;22.40;99.90
9640;DHT22;51745;50.872;4.732;2022-07-12T09:18:29;22.50;99.90
9640;DHT22;51745;50.872;4.732;2022-07-12T09:21:31;22.60;99.90
9640;DHT22;51745;50.872;4.732;2022-07-12T09:24:20;22.60;99.90
9640;DHT22;51745;50.872;4.732;2022-07-12T09:27:29;22.70;99.90
9640;DHT22;51745;50.872;4.732;2022-07-12T09:30:17;23.00;99.90
9640;DHT22;51745;50.872;4.732;2022-07-12T09:33:09;23.30;99.90
9640;DHT22;51745;50.872;4.732;2022-07-12T09:36:15;23.40;99.90
9640;DHT22;51745;50.872;4.732;2022-07-12T09:39:03;23.50;99.90
9640;DHT22;51745;50.872;4.732;2022-07-12T09:41:53;23.60;99.90
9640;DHT22;51745;50.872;4.732;2022-07-12T09:44:42;23.70;99.90
9640;DHT22;51745;50.872;4.732;2022-07-12T09:47:43;23.80;99.90
9640;DHT22;51745;50.872;4.732;2022-07-12T09:50:35;23.80;99.90
9640;DHT22;51745;50.872;4.732;2022-07-12T09:53:30;22.60;99.90
9640;DHT22;51745;50.872;4.732;2022-07-12T09:56:19;23.70;99.90
9640;DHT22;51745;50.872;4.732;2022-07-12T09:59:12;23.80;99.90
9640;DHT22;51745;50.872;4.732;2022-07-12T10:02:01;24.00;99.90
9640;DHT22;51745;50.872;4.732;2022-07-12T10:04:52;24.40;99.90
9640;DHT22;51745;50.872;4.732;2022-07-12T10:07:46;24.40;99.90
9640;DHT22;51745;50.872;4.732;2022-07-12T10:10:43;24.60;99.90
9640;DHT22;51745;50.872;4.732;2022-07-12T10:13:31;24.80;99.90
9640;DHT22;51745;50.872;4.732;2022-07-12T10:16:24;25.00;99.90
9640;DHT22;51745;50.872;4.732;2022-07-12T10:19:23;25.20;99.90
9640;DHT22;51745;50.872;4.732;2022-07-12T10:22:23;26.00;99.90
9640;DHT22;51745;50.872;4.732;2022-07-12T10:25:33;25.50;99.90
9640;DHT22;51745;50.872;4.732;2022-07-12T10:31:31;25.70;99.90
9640;DHT22;51745;50.872;4.732;2022-07-12T10:34:22;25.50;99.90
9640;DHT22;51745;50.872;4.732;2022-07-12T10:37:22;25.60;99.90
9640;DHT22;51745;50.872;4.732;2022-07-12T10:40:13;25.70;99.90
9640;DHT22;51745;50.872;4.732;2022-07-12T10:43:14;25.80;99.90
9640;DHT22;51745;50.872;4.732;2022-07-12T10:46:05;25.90;99.90
9640;DHT22;51745;50.872;4.732;2022-07-12T10:52:17;26.40;99.90
9640;DHT22;51745;50.872;4.732;2022-07-12T10:55:36;26.50;99.90
9640;DHT22;51745;50.872;4.732;2022-07-12T11:02:04;26.80;99.90
9640;DHT22;51745;50.872;4.732;2022-07-12T11:05:24;26.70;99.90
9640;DHT22;51745;50.872;4.732;2022-07-12T11:11:56;26.80;99.90
9640;DHT22;51745;50.872;4.732;2022-07-12T11:14:50;26.80;99.90
9640;DHT22;51745;50.872;4.732;2022-07-12T11:17:56;26.90;99.90
9640;DHT22;51745;50.872;4.732;2022-07-12T11:27:46;27.00;99.90
9640;DHT22;51745;50.872;4.732;2022-07-12T11:30:36;27.20;99.90
9640;DHT22;51745;50.872;4.732;2022-07-12T11:33:25;28.30;99.90
9640;DHT22;51745;50.872;4.732;2022-07-12T11:36:13;27.50;99.90
9640;DHT22;51745;50.872;4.732;2022-07-12T11:39:01;27.60;99.90
9640;DHT22;51745;50.872;4.732;2022-07-12T11:41:58;27.70;99.90
9640;DHT22;51745;50.872;4.732;2022-07-12T11:44:59;27.60;99.90
9640;DHT22;51745;50.872;4.732;2022-07-12T11:47:48;28.00;99.90
9640;DHT22;51745;50.872;4.732;2022-07-12T11:50:37;27.70;99.90
9640;DHT22;51745;50.872;4.732;2022-07-12T11:53:26;27.50;99.90
9640;DHT22;51745;50.872;4.732;2022-07-12T11:56:14;27.50;99.90
9640;DHT22;51745;50.872;4.732;2022-07-12T11:59:06;27.50;99.90
9640;DHT22;51745;50.872;4.732;2022-07-12T12:02:04;27.80;99.90
9640;DHT22;51745;50.872;4.732;2022-07-12T12:04:54;28.10;99.90
9640;DHT22;51745;50.872;4.732;2022-07-12T12:07:52;28.30;99.90
9640;DHT22;51745;50.872;4.732;2022-07-12T12:10:52;28.30;99.90
9640;DHT22;51745;50.872;4.732;2022-07-12T12:13:45;28.40;99.90
9640;DHT22;51745;50.872;4.732;2022-07-12T12:17:12;28.50;99.90
9640;DHT22;51745;50.872;4.732;2022-07-12T12:20:14;28.40;99.90
9640;DHT22;51745;50.872;4.732;2022-07-12T12:23:18;28.30;98.70
9640;DHT22;51745;50.872;4.732;2022-07-12T12:26:12;28.50;99.90
9640;DHT22;51745;50.872;4.732;2022-07-12T12:30:17;28.20;98.00
9640;DHT22;51745;50.872;4.732;2022-07-12T12:33:32;28.50;99.90
9640;DHT22;51745;50.872;4.732;2022-07-12T12:36:20;28.70;98.10
9640;DHT22;51745;50.872;4.732;2022-07-12T12:39:29;29.10;99.90
9640;DHT22;51745;50.872;4.732;2022-07-12T12:42:23;29.80;97.80
9640;DHT22;51745;50.872;4.732;2022-07-12T12:45:16;29.10;96.50
9640;DHT22;51745;50.872;4.732;2022-07-12T12:48:05;29.00;96.80
9640;DHT22;51745;50.872;4.732;2022-07-12T12:51:02;29.00;97.70
9640;DHT22;51745;50.872;4.732;2022-07-12T12:53:54;29.10;97.10
9640;DHT22;51745;50.872;4.732;2022-07-12T12:56:43;29.40;98.10
9640;DHT22;51745;50.872;4.732;2022-07-12T12:59:31;29.50;96.70
9640;DHT22;51745;50.872;4.732;2022-07-12T13:02:23;29.40;94.20
9640;DHT22;51745;50.872;4.732;2022-07-12T13:10:30;29.10;93.40
9640;DHT22;51745;50.872;4.732;2022-07-12T13:13:18;29.40;92.40
9640;DHT22;51745;50.872;4.732;2022-07-12T13:16:07;29.20;90.70
9640;DHT22;51745;50.872;4.732;2022-07-12T13:18:55;29.30;89.10
9640;DHT22;51745;50.872;4.732;2022-07-12T13:24:40;29.70;89.80
9640;DHT22;51745;50.872;4.732;2022-07-12T13:27:29;29.90;87.90
9640;DHT22;51745;50.872;4.732;2022-07-12T13:30:37;29.80;90.40
9640;DHT22;51745;50.872;4.732;2022-07-12T13:33:25;29.60;87.30
9640;DHT22;51745;50.872;4.732;2022-07-12T13:36:14;29.40;87.10
9640;DHT22;51745;50.872;4.732;2022-07-12T13:39:18;29.20;85.90
9640;DHT22;51745;50.872;4.732;2022-07-12T13:42:24;29.30;89.00
9640;DHT22;51745;50.872;4.732;2022-07-12T13:45:15;29.40;88.30
9640;DHT22;51745;50.872;4.732;2022-07-12T13:48:04;29.50;91.60
9640;DHT22;51745;50.872;4.732;2022-07-12T13:50:53;29.80;89.70
9640;DHT22;51745;50.872;4.732;2022-07-12T13:54:02;29.90;89.30
9640;DHT22;51745;50.872;4.732;2022-07-12T13:56:50;29.70;90.00
9640;DHT22;51745;50.872;4.732;2022-07-12T13:59:43;29.40;88.30
9640;DHT22;51745;50.872;4.732;2022-07-12T14:02:50;29.50;89.50
9640;DHT22;51745;50.872;4.732;2022-07-12T14:05:40;29.50;87.60
9640;DHT22;51745;50.872;4.732;2022-07-12T14:08:28;29.60;88.00
9640;DHT22;51745;50.872;4.732;2022-07-12T14:15:48;29.90;80.60
9640;DHT22;51745;50.872;4.732;2022-07-12T14:20:15;30.20;84.60
9640;DHT22;51745;50.872;4.732;2022-07-12T14:23:36;30.00;82.20
9640;DHT22;51745;50.872;4.732;2022-07-12T14:26:24;30.10;83.20
9640;DHT22;51745;50.872;4.732;2022-07-12T14:29:12;29.90;77.80
9640;DHT22;51745;50.872;4.732;2022-07-12T14:32:00;30.20;81.80
9640;DHT22;51745;50.872;4.732;2022-07-12T14:34:51;30.20;84.00
9640;DHT22;51745;50.872;4.732;2022-07-12T14:40:44;30.10;78.00
9640;DHT22;51745;50.872;4.732;2022-07-12T14:43:35;29.90;77.30
9640;DHT22;51745;50.872;4.732;2022-07-12T14:46:23;29.70;77.10
9640;DHT22;51745;50.872;4.732;2022-07-12T14:49:11;29.90;81.00
9640;DHT22;51745;50.872;4.732;2022-07-12T14:51:59;30.10;76.70
9640;DHT22;51745;50.872;4.732;2022-07-12T14:54:47;30.00;73.00
9640;DHT22;51745;50.872;4.732;2022-07-12T14:57:38;29.60;72.40
9640;DHT22;51745;50.872;4.732;2022-07-12T15:00:30;30.20;72.30
9640;DHT22;51745;50.872;4.732;2022-07-12T15:03:26;30.60;77.80
9640;DHT22;51745;50.872;4.732;2022-07-12T15:06:15;30.60;79.40
9640;DHT22;51745;50.872;4.732;2022-07-12T15:09:03;30.80;74.70
9640;DHT22;51745;50.872;4.732;2022-07-12T15:12:00;31.00;77.00
9640;DHT22;51745;50.872;4.732;2022-07-12T15:14:49;31.10;73.60
9640;DHT22;51745;50.872;4.732;2022-07-12T15:17:43;31.20;71.60
9640;DHT22;51745;50.872;4.732;2022-07-12T15:20:31;30.90;68.70
9640;DHT22;51745;50.872;4.732;2022-07-12T15:35:33;30.50;68.20
9640;DHT22;51745;50.872;4.732;2022-07-12T15:41:35;30.50;75.10
9640;DHT22;51745;50.872;4.732;2022-07-12T15:44:27;30.40;77.20
9640;DHT22;51745;50.872;4.732;2022-07-12T15:47:18;30.40;74.70
9640;DHT22;51745;50.872;4.732;2022-07-12T15:50:13;30.50;73.50
9640;DHT22;51745;50.872;4.732;2022-07-12T15:53:33;30.50;68.60
9640;DHT22;51745;50.872;4.732;2022-07-12T15:56:20;30.40;75.00
9640;DHT22;51745;50.872;4.732;2022-07-12T15:59:13;30.80;63.30
9640;DHT22;51745;50.872;4.732;2022-07-12T16:02:03;30.40;70.30
9640;DHT22;51745;50.872;4.732;2022-07-12T16:14:31;29.90;72.00
9640;DHT22;51745;50.872;4.732;2022-07-12T16:17:41;29.60;70.80
9640;DHT22;51745;50.872;4.732;2022-07-12T16:21:08;29.50;74.60
9640;DHT22;51745;50.872;4.732;2022-07-12T16:24:18;29.20;76.90
9640;DHT22;51745;50.872;4.732;2022-07-12T16:33:29;28.40;71.30
9640;DHT22;51745;50.872;4.732;2022-07-12T16:36:32;28.70;71.80
9640;DHT22;51745;50.872;4.732;2022-07-12T17:05:31;29.70;74.30
9640;DHT22;51745;50.872;4.732;2022-07-12T17:20:26;29.00;74.70
9640;DHT22;51745;50.872;4.732;2022-07-12T17:24:03;28.70;75.60
9640;DHT22;51745;50.872;4.732;2022-07-12T17:28:17;28.60;74.70
9640;DHT22;51745;50.872;4.732;2022-07-12T17:31:09;28.60;75.30
9640;DHT22;51745;50.872;4.732;2022-07-12T17:34:03;29.40;77.30
9640;DHT22;51745;50.872;4.732;2022-07-12T17:37:03;28.40;75.90
9640;DHT22;51745;50.872;4.732;2022-07-12T17:40:05;28.30;74.80
9640;DHT22;51745;50.872;4.732;2022-07-12T17:44:38;28.10;75.70
9640;DHT22;51745;50.872;4.732;2022-07-12T17:53:08;27.80;76.80
9640;DHT22;51745;50.872;4.732;2022-07-12T18:28:42;25.30;78.00
9640;DHT22;51745;50.872;4.732;2022-07-12T18:40:06;26.20;83.50
9640;DHT22;51745;50.872;4.732;2022-07-12T18:43:03;26.20;87.10
9640;DHT22;51745;50.872;4.732;2022-07-12T19:15:20;25.60;92.70
9640;DHT22;51745;50.872;4.732;2022-07-12T19:19:50;25.20;93.00
9640;DHT22;51745;50.872;4.732;2022-07-12T19:22:43;25.20;94.70
9640;DHT22;51745;50.872;4.732;2022-07-12T19:26:08;25.00;94.80
9640;DHT22;51745;50.872;4.732;2022-07-12T19:29:26;25.40;95.30
9640;DHT22;51745;50.872;4.732;2022-07-12T19:36:31;24.90;95.90
9640;DHT22;51745;50.872;4.732;2022-07-12T19:39:21;25.00;96.80
9640;DHT22;51745;50.872;4.732;2022-07-12T19:42:25;24.50;97.60
9640;DHT22;51745;50.872;4.732;2022-07-12T19:45:16;24.60;97.80
9640;DHT22;51745;50.872;4.732;2022-07-12T19:48:13;24.60;99.10
9640;DHT22;51745;50.872;4.732;2022-07-12T19:51:43;24.50;99.50
9640;DHT22;51745;50.872;4.732;2022-07-12T19:54:32;24.40;98.80
9640;DHT22;51745;50.872;4.732;2022-07-12T19:57:22;24.30;99.00
9640;DHT22;51745;50.872;4.732;2022-07-12T20:00:10;23.60;99.20
9640;DHT22;51745;50.872;4.732;2022-07-12T20:02:58;24.40;99.90
9640;DHT22;51745;50.872;4.732;2022-07-12T20:05:45;24.20;99.90
9640;DHT22;51745;50.872;4.732;2022-07-12T20:08:35;24.20;99.90
9640;DHT22;51745;50.872;4.732;2022-07-12T20:11:23;24.00;99.90
9640;DHT22;51745;50.872;4.732;2022-07-12T20:14:11;25.10;99.90
9640;DHT22;51745;50.872;4.732;2022-07-12T20:16:58;24.00;99.90
9640;DHT22;51745;50.872;4.732;2022-07-12T20:19:46;23.90;99.90
9640;DHT22;51745;50.872;4.732;2022-07-12T20:22:35;23.80;99.90
9640;DHT22;51745;50.872;4.732;2022-07-12T20:25:24;23.80;99.90
9640;DHT22;51745;50.872;4.732;2022-07-12T20:28:12;22.70;99.90
9640;DHT22;51745;50.872;4.732;2022-07-12T20:30:59;23.60;99.90
9640;DHT22;51745;50.872;4.732;2022-07-12T20:33:47;23.60;99.90
9640;DHT22;51745;50.872;4.732;2022-07-12T20:36:52;23.50;99.90
9640;DHT22;51745;50.872;4.732;2022-07-12T20:39:41;23.40;99.90
9640;DHT22;51745;50.872;4.732;2022-07-12T20:42:30;23.50;99.90
9640;DHT22;51745;50.872;4.732;2022-07-12T20:45:18;23.40;99.90
9640;DHT22;51745;50.872;4.732;2022-07-12T20:48:06;23.30;99.90
9640;DHT22;51745;50.872;4.732;2022-07-12T20:50:54;23.30;99.90
9640;DHT22;51745;50.872;4.732;2022-07-12T20:53:42;23.20;99.90
9640;DHT22;51745;50.872;4.732;2022-07-12T20:56:30;23.20;99.90
9640;DHT22;51745;50.872;4.732;2022-07-12T20:59:23;23.10;99.90
9640;DHT22;51745;50.872;4.732;2022-07-12T21:02:10;23.10;99.90
9640;DHT22;51745;50.872;4.732;2022-07-12T21:04:58;23.10;99.90
9640;DHT22;51745;50.872;4.732;2022-07-12T21:07:46;23.00;99.90
9640;DHT22;51745;50.872;4.732;2022-07-12T21:10:34;23.00;99.90
9640;DHT22;51745;50.872;4.732;2022-07-12T21:13:22;23.00;99.90
9640;DHT22;51745;50.872;4.732;2022-07-12T21:16:11;23.00;99.90
9640;DHT22;51745;50.872;4.732;2022-07-12T21:19:00;22.80;99.90
9640;DHT22;51745;50.872;4.732;2022-07-12T21:21:48;22.20;99.90
9640;DHT22;51745;50.872;4.732;2022-07-12T21:24:36;22.80;99.90
9640;DHT22;51745;50.872;4.732;2022-07-12T21:27:24;22.80;99.90
9640;DHT22;51745;50.872;4.732;2022-07-12T21:30:13;22.70;99.90
9640;DHT22;51745;50.872;4.732;2022-07-12T21:33:01;22.60;99.90
9640;DHT22;51745;50.872;4.732;2022-07-12T21:35:50;23.10;99.90
9640;DHT22;51745;50.872;4.732;2022-07-12T21:38:38;22.60;99.90